This is the latest recevied weather packets stored in our database for station/object F4BQN-15. If no packets are shown the sender has not sent any weather packets the latest 1 day(s).
| Time | Temp. | Humidity | Pressure | Rain* | Wind** | Luminosity | Snow |
|---|---|---|---|---|---|---|---|
| 1778088504 | 20° C | 45% | 983.4 hPa | - | - | - | - |
| 1778083360 | 25.56° C | 43% | 982.8 hPa | - | - | - | - |
| 1778082460 | 26.67° C | 44% | 982.8 hPa | - | - | - | - |
| 1778081560 | 31.11° C | 41% | 982.8 hPa | - | - | - | - |
| 1778079760 | 23.89° C | 44% | 983 hPa | - | - | - | - |
| 1778078860 | 21.67° C | 46% | 983.1 hPa | - | - | - | - |
| 1778071580 | 22.78° C | 44% | 983.4 hPa | - | - | - | - |
| 1778070680 | 20.56° C | 46% | 983.4 hPa | - | - | - | - |
| 1778068880 | 23.89° C | 43% | 983.2 hPa | - | - | - | - |
| 1778067080 | 22.78° C | 45% | 983.4 hPa | - | - | - | - |
| 1778065279 | 21.11° C | 45% | 983.6 hPa | - | - | - | - |
| 1778063479 | 19.44° C | 46% | 983.9 hPa | - | - | - | - |
| 1778058079 | 18.33° C | 46% | 983.8 hPa | - | - | - | - |
| 1778053548 | 16.67° C | 47% | 983.7 hPa | - | - | - | - |
| 1778052648 | 16.67° C | 48% | 983.6 hPa | - | - | - | - |
| 1778051748 | 16.67° C | 48% | 983.5 hPa | - | - | - | - |
| 1778050848 | 16.67° C | 47% | 983.4 hPa | - | - | - | - |
| 1778049948 | 16.67° C | 47% | 983.3 hPa | - | - | - | - |
| 1778049048 | 16.67° C | 47% | 983.4 hPa | - | - | - | - |
| 1778048148 | 16.11° C | 48% | 983.2 hPa | - | - | - | - |
| 1778046347 | 15° C | 49% | 983.2 hPa | - | - | - | - |
* Rain since midnight (hover to see other rain measurements)
** Current wind speed in m/s (hover to see current wind gust speed)